createdAt,value
2023-04-23T00:01:42.552Z,5.03
2023-04-23T00:04:09.389Z,4.22
2023-04-23T00:06:36.753Z,5.15
2023-04-23T00:09:04.020Z,5.18
2023-04-23T00:11:30.739Z,5.28
2023-04-23T00:13:57.385Z,5.13
2023-04-23T00:16:24.776Z,5.40
2023-04-23T00:18:51.290Z,5.90
2023-04-23T00:21:17.682Z,5.97
2023-04-23T00:23:44.159Z,5.03
2023-04-23T00:26:10.637Z,5.97
2023-04-23T00:28:37.077Z,5.07
2023-04-23T00:31:03.631Z,6.00
2023-04-23T00:33:30.108Z,5.45
2023-04-23T00:35:56.501Z,5.43
2023-04-23T00:38:22.948Z,6.30
2023-04-23T00:40:49.448Z,6.88
2023-04-23T00:43:16.022Z,5.60
2023-04-23T00:45:42.985Z,6.45
2023-04-23T00:48:11.582Z,5.47
2023-04-23T00:50:38.004Z,6.10
2023-04-23T00:53:04.455Z,5.10
2023-04-23T00:55:31.154Z,6.18
2023-04-23T00:57:57.650Z,5.90
2023-04-23T01:00:24.053Z,6.18
2023-04-23T01:02:52.918Z,6.68
2023-04-23T01:05:20.617Z,6.57
2023-04-23T01:07:47.632Z,6.10
2023-04-23T01:10:14.385Z,6.05
2023-04-23T01:12:41.645Z,5.78
2023-04-23T01:15:08.863Z,6.03
2023-04-23T01:17:35.508Z,6.13
2023-04-23T01:20:01.934Z,6.20
2023-04-23T01:22:28.400Z,6.80
2023-04-23T01:24:55.710Z,7.13
2023-04-23T01:27:24.767Z,5.45
2023-04-23T01:29:51.870Z,7.20
2023-04-23T01:32:18.802Z,5.65
2023-04-23T01:34:47.181Z,7.35
2023-04-23T01:37:17.225Z,6.55
2023-04-23T01:39:43.614Z,7.63
2023-04-23T01:42:10.130Z,6.20
2023-04-23T01:44:36.721Z,6.50
2023-04-23T01:47:05.087Z,6.93
2023-04-23T01:49:33.449Z,7.93
2023-04-23T01:51:59.898Z,8.38
2023-04-23T01:54:26.295Z,7.07
2023-04-23T01:56:54.795Z,7.45
2023-04-23T01:59:22.706Z,8.15
2023-04-23T02:01:49.787Z,8.90
2023-04-23T02:04:17.964Z,7.20
2023-04-23T02:06:47.366Z,8.45
2023-04-23T02:09:13.764Z,9.40
2023-04-23T02:11:40.534Z,8.10
2023-04-23T02:14:07.628Z,7.75
2023-04-23T02:16:34.641Z,10.15
2023-04-23T02:19:01.803Z,8.23
2023-04-23T02:21:28.537Z,8.27
2023-04-23T02:23:55.285Z,8.82
2023-04-23T02:26:22.753Z,9.85
2023-04-23T02:28:49.428Z,10.40
2023-04-23T02:31:16.514Z,9.90
2023-04-23T02:33:43.366Z,10.35
2023-04-23T02:36:12.695Z,9.73
2023-04-23T02:38:42.256Z,9.68
2023-04-23T02:41:08.799Z,10.05
2023-04-23T02:43:35.194Z,9.88
2023-04-23T02:46:07.971Z,10.82
2023-04-23T02:48:40.583Z,11.93
2023-04-23T02:51:09.638Z,12.52
2023-04-23T02:53:36.106Z,8.52
2023-04-23T02:56:02.918Z,9.80
2023-04-23T02:58:31.057Z,10.10
2023-04-23T03:01:00.357Z,9.52
2023-04-23T03:03:31.720Z,11.15
2023-04-23T03:06:00.477Z,10.43
2023-04-23T03:08:27.762Z,9.40
2023-04-23T03:10:54.396Z,11.57
2023-04-23T03:13:21.164Z,9.38
2023-04-23T03:15:48.872Z,10.70
2023-04-23T03:18:15.248Z,8.98
2023-04-23T03:20:42.810Z,8.68
2023-04-23T03:23:09.723Z,8.68
2023-04-23T03:25:36.114Z,8.52
2023-04-23T03:28:02.929Z,8.55
2023-04-23T03:30:30.321Z,7.70
2023-04-23T03:32:57.388Z,8.13
2023-04-23T03:35:24.881Z,8.15
2023-04-23T03:37:52.986Z,7.20
2023-04-23T03:40:20.626Z,8.73
2023-04-23T03:42:49.787Z,8.43
2023-04-23T03:45:18.966Z,7.07
2023-04-23T03:47:46.037Z,7.55
2023-04-23T03:50:13.299Z,7.07
2023-04-23T03:52:40.888Z,7.75
2023-04-23T03:55:13.024Z,8.68
2023-04-23T03:57:43.298Z,7.65
2023-04-23T04:00:19.405Z,7.75
2023-04-23T04:02:46.267Z,7.95
2023-04-23T04:05:13.237Z,7.05
2023-04-23T04:07:41.047Z,7.85
2023-04-23T04:10:08.010Z,8.52
2023-04-23T04:12:34.501Z,7.32
2023-04-23T04:15:02.854Z,7.65
2023-04-23T04:17:29.301Z,7.18
2023-04-23T04:19:55.766Z,8.05
2023-04-23T04:22:22.199Z,7.82
2023-04-23T04:24:48.556Z,8.52
2023-04-23T04:27:15.643Z,7.85
2023-04-23T04:29:42.630Z,7.03
2023-04-23T04:32:10.244Z,7.63
2023-04-23T04:34:38.152Z,6.70
2023-04-23T04:37:04.763Z,6.18
2023-04-23T04:39:31.193Z,7.40
2023-04-23T04:41:57.659Z,7.18
2023-04-23T04:44:25.155Z,7.28
2023-04-23T04:46:52.670Z,7.03
2023-04-23T04:49:19.524Z,6.90
2023-04-23T04:51:46.086Z,8.02
2023-04-23T04:54:12.570Z,7.68
2023-04-23T04:56:39.456Z,8.18
2023-04-23T04:59:06.011Z,8.45
2023-04-23T05:01:33.523Z,7.65
2023-04-23T05:04:00.161Z,6.93
2023-04-23T05:06:28.557Z,6.75
2023-04-23T05:08:54.957Z,6.97
2023-04-23T05:11:21.356Z,6.50
2023-04-23T05:13:48.258Z,7.10
2023-04-23T05:16:15.308Z,7.47
2023-04-23T05:18:42.219Z,7.55
2023-04-23T05:21:08.981Z,6.78
2023-04-23T05:23:36.167Z,8.65
2023-04-23T05:26:03.591Z,8.63
2023-04-23T05:28:30.959Z,7.63
2023-04-23T05:30:58.273Z,8.57
2023-04-23T05:33:30.640Z,7.30
2023-04-23T05:35:59.739Z,8.80
2023-04-23T05:38:26.288Z,7.43
2023-04-23T05:40:52.758Z,7.72
2023-04-23T05:43:19.149Z,8.00
2023-04-23T05:45:45.786Z,6.75
2023-04-23T05:48:12.240Z,7.38
2023-04-23T05:50:38.774Z,7.35
2023-04-23T05:53:05.174Z,6.72
2023-04-23T05:55:31.609Z,7.35
2023-04-23T05:57:58.042Z,7.05
2023-04-23T06:00:24.439Z,7.20
2023-04-23T06:02:50.942Z,7.63
2023-04-23T06:05:17.929Z,7.10
2023-04-23T06:07:44.442Z,6.55
2023-04-23T06:10:11.355Z,6.53
2023-04-23T06:12:41.970Z,6.05
2023-04-23T06:15:09.251Z,6.30
2023-04-23T06:17:36.485Z,6.75
2023-04-23T06:20:04.906Z,6.78
2023-04-23T06:22:32.324Z,6.80
2023-04-23T06:24:58.804Z,7.32
2023-04-23T06:27:25.295Z,6.68
2023-04-23T06:29:53.261Z,8.30
2023-04-23T06:32:20.882Z,6.40
2023-04-23T06:35:00.347Z,6.38
2023-04-23T06:37:29.684Z,5.70
2023-04-23T06:39:56.483Z,5.93
2023-04-23T06:42:22.844Z,6.13
2023-04-23T06:45:06.102Z,5.93
2023-04-23T06:47:33.185Z,5.85
2023-04-23T06:50:02.446Z,6.65
2023-04-23T06:52:28.914Z,5.80
2023-04-23T06:54:55.458Z,5.93
2023-04-23T06:57:22.030Z,6.28
2023-04-23T06:59:48.512Z,6.10
2023-04-23T07:02:16.161Z,6.00
2023-04-23T07:04:43.084Z,6.10
2023-04-23T07:07:09.823Z,6.82
2023-04-23T07:09:36.242Z,5.80
2023-04-23T07:12:03.230Z,6.75
2023-04-23T07:14:29.602Z,6.15
2023-04-23T07:16:56.085Z,6.72
2023-04-23T07:19:22.458Z,7.35
2023-04-23T07:21:48.884Z,6.43
2023-04-23T07:24:15.482Z,5.85
2023-04-23T07:26:42.260Z,7.43
2023-04-23T07:29:11.014Z,7.13
2023-04-23T07:31:39.188Z,7.70
2023-04-23T07:34:06.505Z,7.60
2023-04-23T07:36:33.483Z,5.95
2023-04-23T07:38:59.942Z,6.60
2023-04-23T07:41:26.493Z,7.28
2023-04-23T07:43:52.997Z,7.25
2023-04-23T07:46:20.407Z,7.25
2023-04-23T07:48:46.883Z,6.63
2023-04-23T07:51:13.273Z,7.43
2023-04-23T07:53:39.728Z,7.50
2023-04-23T07:56:06.324Z,8.27
2023-04-23T07:58:33.289Z,7.72
2023-04-23T08:00:59.732Z,8.05
2023-04-23T08:03:26.440Z,6.90
2023-04-23T08:05:53.019Z,7.30
2023-04-23T08:08:19.466Z,7.25
2023-04-23T08:10:46.327Z,7.22
2023-04-23T08:13:12.768Z,6.25
2023-04-23T08:15:39.336Z,6.20
2023-04-23T08:18:06.068Z,5.93
2023-04-23T08:20:34.572Z,6.13
2023-04-23T08:23:01.414Z,5.38
2023-04-23T08:25:27.860Z,6.07
2023-04-23T08:27:54.270Z,5.45
2023-04-23T08:30:20.765Z,5.45
2023-04-23T08:32:51.075Z,5.05
2023-04-23T08:35:17.925Z,5.38
2023-04-23T08:37:44.336Z,5.50
2023-04-23T08:40:11.369Z,4.53
2023-04-23T08:42:55.102Z,5.05
2023-04-23T08:45:21.820Z,4.97
2023-04-23T08:47:48.270Z,4.53
2023-04-23T08:50:18.063Z,3.63
2023-04-23T08:52:52.689Z,4.00
2023-04-23T08:55:21.375Z,3.45
2023-04-23T08:57:48.510Z,3.95
2023-04-23T09:00:18.252Z,3.90
2023-04-23T09:02:47.180Z,3.42
2023-04-23T09:05:14.526Z,4.63
2023-04-23T09:07:42.266Z,4.10
2023-04-23T09:10:11.564Z,4.25
2023-04-23T09:12:42.577Z,3.35
2023-04-23T09:15:13.420Z,3.42
2023-04-23T09:17:44.950Z,2.80
2023-04-23T09:20:12.570Z,3.65
2023-04-23T09:22:43.176Z,3.45
2023-04-23T09:25:12.675Z,2.90
2023-04-23T09:27:39.982Z,2.47
2023-04-23T09:30:09.724Z,2.78
2023-04-23T09:32:38.434Z,3.75
2023-04-23T09:35:10.528Z,2.85
2023-04-23T09:37:37.144Z,3.00
2023-04-23T09:40:08.486Z,3.25
2023-04-23T09:42:36.154Z,2.65
2023-04-23T09:45:12.687Z,2.80
2023-04-23T09:47:41.359Z,2.65
2023-04-23T09:50:10.658Z,2.95
2023-04-23T09:52:40.940Z,3.15
2023-04-23T09:55:07.956Z,3.22
2023-04-23T09:57:38.850Z,3.35
2023-04-23T10:00:25.926Z,3.15
2023-04-23T10:02:52.567Z,2.80
2023-04-23T10:05:24.844Z,2.78
2023-04-23T10:07:56.349Z,3.38
2023-04-23T10:10:24.987Z,3.40
2023-04-23T10:12:56.608Z,3.20
2023-04-23T10:15:25.580Z,3.17
2023-04-23T10:17:52.588Z,3.00
2023-04-23T10:20:21.167Z,3.47
2023-04-23T10:22:48.036Z,2.95
2023-04-23T10:25:15.560Z,2.88
2023-04-23T10:27:52.054Z,3.05
2023-04-23T10:30:20.321Z,2.90
2023-04-23T10:32:48.710Z,3.33
2023-04-23T10:35:15.301Z,2.90
2023-04-23T10:37:42.123Z,2.92
2023-04-23T10:40:12.794Z,2.42
2023-04-23T10:42:40.615Z,2.78
2023-04-23T10:45:23.429Z,3.00
2023-04-23T10:47:52.798Z,3.45
2023-04-23T10:50:30.292Z,3.60
2023-04-23T10:52:57.832Z,3.40
2023-04-23T10:55:27.174Z,3.15
2023-04-23T10:58:05.249Z,3.50
2023-04-23T11:00:40.799Z,2.95
2023-04-23T11:03:43.437Z,3.40
2023-04-23T11:06:20.085Z,3.13
2023-04-23T11:08:54.047Z,2.70
2023-04-23T11:11:41.112Z,3.20
2023-04-23T11:14:16.500Z,3.22
2023-04-23T11:16:43.138Z,3.20
2023-04-23T11:19:12.339Z,3.15
2023-04-23T11:21:59.920Z,3.40
2023-04-23T11:24:41.403Z,3.15
2023-04-23T11:27:09.891Z,3.72
2023-04-23T11:29:38.767Z,3.55
2023-04-23T11:32:10.334Z,4.78
2023-04-23T11:34:40.194Z,4.57
2023-04-23T11:37:10.716Z,3.83
2023-04-23T11:39:37.524Z,4.40
2023-04-23T11:42:05.725Z,4.03
2023-04-23T11:44:32.260Z,5.18
2023-04-23T11:47:02.386Z,4.68
2023-04-23T11:49:29.082Z,4.38
2023-04-23T11:51:55.513Z,4.50
2023-04-23T11:54:27.357Z,4.10
2023-04-23T11:56:54.861Z,4.60
2023-04-23T11:59:21.534Z,3.70
2023-04-23T12:01:50.363Z,3.95
2023-04-23T12:04:24.824Z,4.30
2023-04-23T12:06:54.679Z,3.47
2023-04-23T12:09:23.743Z,4.05
2023-04-23T12:11:53.304Z,3.90
2023-04-23T12:14:26.881Z,3.50
2023-04-23T12:16:53.453Z,2.90
2023-04-23T12:19:21.657Z,2.92
2023-04-23T12:21:56.270Z,3.17
2023-04-23T12:24:24.620Z,3.70
2023-04-23T12:26:54.437Z,2.90
2023-04-23T12:29:22.804Z,2.40
2023-04-23T12:31:52.149Z,3.55
2023-04-23T12:34:20.082Z,2.88
2023-04-23T12:36:47.844Z,2.47
2023-04-23T12:39:31.092Z,2.47
2023-04-23T12:44:36.680Z,2.58
2023-04-23T12:47:08.309Z,1.85
2023-04-23T12:49:36.540Z,2.10
2023-04-23T12:52:04.382Z,2.25
2023-04-23T12:54:32.509Z,2.53
2023-04-23T12:57:01.832Z,2.03
2023-04-23T12:59:28.774Z,2.03
2023-04-23T13:01:55.623Z,3.00
2023-04-23T13:04:22.114Z,2.38
2023-04-23T13:06:48.888Z,1.90
2023-04-23T13:09:15.343Z,2.38
2023-04-23T13:11:41.690Z,1.60
2023-04-23T13:14:10.235Z,1.70
2023-04-23T13:16:36.797Z,1.95
2023-04-23T13:19:03.303Z,1.50
2023-04-23T13:21:29.679Z,1.50
2023-04-23T13:23:57.011Z,1.50
2023-04-23T13:26:23.485Z,1.55
2023-04-23T13:28:49.978Z,1.55
2023-04-23T13:31:17.355Z,1.70
2023-04-23T13:33:43.890Z,1.67
2023-04-23T13:36:10.306Z,1.58
2023-04-23T13:38:36.788Z,1.40
2023-04-23T13:41:03.468Z,1.52
2023-04-23T13:43:29.994Z,1.40
2023-04-23T13:45:56.521Z,2.60
2023-04-23T13:48:23.628Z,1.42
2023-04-23T13:50:50.143Z,1.52
2023-04-23T13:53:16.611Z,1.83
2023-04-23T13:55:43.012Z,1.77
2023-04-23T13:58:11.220Z,1.50
2023-04-23T14:00:38.986Z,1.30
2023-04-23T14:03:05.534Z,1.10
2023-04-23T14:05:32.089Z,1.60
2023-04-23T14:07:58.456Z,1.45
2023-04-23T14:10:24.893Z,1.33
2023-04-23T14:12:51.761Z,1.27
2023-04-23T14:15:18.246Z,1.30
2023-04-23T14:17:45.729Z,1.77
2023-04-23T14:20:15.402Z,1.25
2023-04-23T14:22:42.820Z,1.58
2023-04-23T14:25:23.700Z,1.40
2023-04-23T14:27:51.340Z,1.23
2023-04-23T14:30:21.522Z,1.45
2023-04-23T14:32:50.097Z,1.73
2023-04-23T14:35:17.323Z,1.35
2023-04-23T14:37:45.685Z,1.40
2023-04-23T14:40:15.599Z,1.33
2023-04-23T14:42:42.013Z,1.52
2023-04-23T14:45:08.905Z,1.40
2023-04-23T14:47:35.389Z,1.30
2023-04-23T14:50:01.885Z,1.40
2023-04-23T14:52:28.474Z,0.95
2023-04-23T14:54:55.877Z,1.08
2023-04-23T14:57:23.363Z,1.48
2023-04-23T14:59:49.883Z,1.40
2023-04-23T15:02:16.382Z,1.25
2023-04-23T15:04:43.035Z,1.27
2023-04-23T15:07:09.437Z,1.40
2023-04-23T15:09:35.818Z,1.20
2023-04-23T15:12:05.546Z,1.08
2023-04-23T15:14:36.395Z,0.98
2023-04-23T15:17:02.867Z,1.35
2023-04-23T15:19:31.204Z,0.85
2023-04-23T15:21:57.777Z,1.00
2023-04-23T15:24:24.251Z,1.15
2023-04-23T15:26:53.148Z,1.02
2023-04-23T15:29:19.529Z,1.17
2023-04-23T15:31:46.003Z,1.45
2023-04-23T15:34:12.552Z,1.98
2023-04-23T15:36:39.010Z,1.25
2023-04-23T15:39:06.750Z,1.40
2023-04-23T15:41:34.333Z,1.50
2023-04-23T15:44:01.660Z,1.55
2023-04-23T15:46:28.019Z,1.00
2023-04-23T15:48:54.377Z,1.23
2023-04-23T15:51:21.095Z,1.58
2023-04-23T15:53:47.507Z,1.60
2023-04-23T15:56:13.966Z,2.10
2023-04-23T15:58:40.364Z,1.70
2023-04-23T16:01:07.298Z,1.30
2023-04-23T16:03:34.473Z,1.92
2023-04-23T16:06:01.301Z,2.08
2023-04-23T16:08:27.773Z,1.60
2023-04-23T16:10:54.920Z,1.38
2023-04-23T16:13:21.503Z,1.80
2023-04-23T16:15:47.934Z,1.98
2023-04-23T16:18:14.389Z,1.55
2023-04-23T16:20:41.146Z,1.80
2023-04-23T16:23:07.591Z,1.98
2023-04-23T16:25:34.010Z,1.83
2023-04-23T16:28:00.833Z,1.83
2023-04-23T16:30:27.241Z,2.13
2023-04-23T16:32:54.199Z,1.75
2023-04-23T16:35:20.875Z,1.73
2023-04-23T16:37:47.356Z,1.80
2023-04-23T16:40:15.574Z,2.08
2023-04-23T16:42:43.426Z,1.70
2023-04-23T16:45:10.853Z,3.45
2023-04-23T16:47:37.777Z,1.70
2023-04-23T16:50:04.428Z,1.45
2023-04-23T16:52:30.917Z,1.30
2023-04-23T16:54:57.303Z,1.20
2023-04-23T16:57:25.233Z,1.25
2023-04-23T16:59:52.672Z,1.30
2023-04-23T17:02:19.853Z,1.52
2023-04-23T17:04:46.577Z,1.33
2023-04-23T17:07:13.340Z,1.25
2023-04-23T17:09:39.848Z,1.33
2023-04-23T17:12:06.317Z,1.58
2023-04-23T17:14:32.745Z,1.40
2023-04-23T17:16:59.152Z,1.67
2023-04-23T17:19:25.649Z,1.80
2023-04-23T17:21:52.020Z,1.20
2023-04-23T17:24:18.475Z,1.75
2023-04-23T17:26:44.921Z,1.63
2023-04-23T17:29:11.440Z,1.75
2023-04-23T17:31:38.564Z,1.30
2023-04-23T17:34:05.150Z,1.20
2023-04-23T17:36:31.662Z,1.77
2023-04-23T17:38:58.072Z,1.02
2023-04-23T17:41:24.722Z,1.27
2023-04-23T17:43:51.167Z,1.27
2023-04-23T17:46:17.774Z,1.15
2023-04-23T17:48:44.864Z,1.20
2023-04-23T17:51:11.283Z,1.25
2023-04-23T17:53:37.754Z,1.70
2023-04-23T17:56:04.206Z,1.42
2023-04-23T17:58:31.247Z,1.42
2023-04-23T18:00:57.898Z,1.10
2023-04-23T18:03:24.667Z,1.30
2023-04-23T18:05:51.373Z,1.05
2023-04-23T18:08:19.383Z,1.10
2023-04-23T18:10:46.162Z,1.48
2023-04-23T18:13:13.570Z,1.25
2023-04-23T18:15:41.909Z,1.50
2023-04-23T18:18:08.921Z,0.90
2023-04-23T18:20:38.166Z,0.90
2023-04-23T18:23:06.276Z,1.00
2023-04-23T18:25:32.887Z,1.00
2023-04-23T18:27:59.260Z,1.13
2023-04-23T18:30:26.075Z,1.10
2023-04-23T18:33:03.459Z,0.85
2023-04-23T18:35:29.960Z,0.98
2023-04-23T18:38:10.429Z,1.00
2023-04-23T18:40:36.862Z,1.27
2023-04-23T18:43:03.272Z,1.80
2023-04-23T18:45:29.700Z,1.42
2023-04-23T18:47:59.157Z,1.20
2023-04-23T18:50:44.056Z,1.52
2023-04-23T18:53:10.504Z,1.10
2023-04-23T18:55:36.997Z,1.10
2023-04-23T18:58:03.555Z,1.02
2023-04-23T19:00:29.956Z,0.90
2023-04-23T19:02:56.605Z,1.52
2023-04-23T19:05:23.204Z,1.42
2023-04-23T19:07:49.705Z,1.20
2023-04-23T19:10:16.824Z,1.13
2023-04-23T19:12:43.994Z,1.45
2023-04-23T19:15:11.047Z,1.52
2023-04-23T19:17:38.363Z,1.10
2023-04-23T19:20:06.144Z,1.70
2023-04-23T19:22:32.595Z,1.35
2023-04-23T19:24:59.005Z,1.20
2023-04-23T19:27:25.464Z,1.38
2023-04-23T19:29:53.224Z,1.65
2023-04-23T19:32:19.771Z,0.93
2023-04-23T19:34:46.149Z,1.00
2023-04-23T19:37:12.651Z,1.08
2023-04-23T19:39:39.192Z,0.95
2023-04-23T19:42:06.988Z,0.90
2023-04-23T19:44:33.885Z,0.80
2023-04-23T19:47:00.325Z,0.85
2023-04-23T19:49:26.826Z,1.00
2023-04-23T19:51:54.306Z,1.30
2023-04-23T19:54:22.211Z,1.90
2023-04-23T19:56:49.886Z,1.38
2023-04-23T19:59:20.711Z,1.00
2023-04-23T20:01:47.734Z,0.75
2023-04-23T20:04:14.625Z,1.08
2023-04-23T20:06:41.549Z,0.93
2023-04-23T20:09:08.303Z,1.30
2023-04-23T20:11:35.751Z,1.05
2023-04-23T20:14:02.924Z,0.95
2023-04-23T20:16:30.537Z,0.98
2023-04-23T20:18:57.567Z,1.20
2023-04-23T20:21:24.520Z,0.85
2023-04-23T20:23:51.097Z,1.42
2023-04-23T20:26:19.216Z,1.30
2023-04-23T20:28:48.073Z,0.90
2023-04-23T20:31:14.977Z,0.85
2023-04-23T20:33:41.503Z,0.77
2023-04-23T20:36:11.141Z,1.33
2023-04-23T20:38:37.997Z,1.10
2023-04-23T20:41:10.050Z,0.90
2023-04-23T20:43:39.518Z,0.90
2023-04-23T20:46:09.053Z,1.30
2023-04-23T20:48:36.713Z,1.30
2023-04-23T20:51:03.209Z,1.17
2023-04-23T20:53:29.681Z,0.98
2023-04-23T20:55:58.778Z,2.00
2023-04-23T20:58:25.179Z,1.45
2023-04-23T21:00:51.600Z,1.67
2023-04-23T21:03:18.906Z,1.63
2023-04-23T21:05:45.506Z,1.60
2023-04-23T21:08:13.613Z,1.60
2023-04-23T21:10:41.061Z,1.40
2023-04-23T21:13:11.029Z,1.38
2023-04-23T21:15:38.474Z,1.17
2023-04-23T21:18:05.647Z,1.60
2023-04-23T21:20:32.183Z,1.65
2023-04-23T21:22:58.569Z,1.02
2023-04-23T21:25:26.609Z,1.40
2023-04-23T21:27:55.302Z,1.30
2023-04-23T21:30:36.671Z,1.42
2023-04-23T21:33:03.119Z,1.50
2023-04-23T21:35:29.523Z,1.00
2023-04-23T21:37:55.988Z,1.08
2023-04-23T21:40:22.351Z,0.90
2023-04-23T21:42:49.765Z,1.00
2023-04-23T21:45:17.553Z,0.80
2023-04-23T21:47:44.195Z,1.15
2023-04-23T21:50:11.391Z,0.80
2023-04-23T21:52:37.930Z,1.05
2023-04-23T21:55:08.353Z,1.05
2023-04-23T21:57:35.510Z,0.90
2023-04-23T22:00:01.960Z,0.75
2023-04-23T22:02:28.520Z,1.10
2023-04-23T22:04:55.061Z,1.02
2023-04-23T22:07:22.530Z,0.90
2023-04-23T22:09:49.087Z,0.77
2023-04-23T22:12:15.502Z,1.08
2023-04-23T22:14:41.912Z,1.08
2023-04-23T22:17:08.934Z,0.70
2023-04-23T22:19:35.683Z,0.82
2023-04-23T22:22:02.058Z,1.13
2023-04-23T22:24:28.427Z,0.82
2023-04-23T22:26:55.090Z,0.90
2023-04-23T22:29:21.435Z,1.10
2023-04-23T22:31:47.835Z,0.80
2023-04-23T22:34:14.186Z,0.73
2023-04-23T22:36:42.989Z,0.82
2023-04-23T22:39:10.629Z,0.77
2023-04-23T22:41:38.704Z,1.10
2023-04-23T22:44:05.164Z,0.95
2023-04-23T22:46:31.716Z,0.80
2023-04-23T22:49:01.021Z,0.73
2023-04-23T22:51:27.400Z,1.00
2023-04-23T22:53:53.763Z,1.02
2023-04-23T22:56:20.807Z,0.98
2023-04-23T22:58:47.264Z,1.02
2023-04-23T23:01:13.667Z,0.80
2023-04-23T23:03:40.195Z,0.60
2023-04-23T23:06:06.844Z,0.95
2023-04-23T23:08:33.222Z,0.73
2023-04-23T23:10:59.681Z,0.90
2023-04-23T23:13:26.032Z,0.70
2023-04-23T23:15:52.576Z,0.93
2023-04-23T23:18:18.925Z,1.00
2023-04-23T23:20:45.423Z,0.77
2023-04-23T23:23:11.883Z,0.65
2023-04-23T23:25:38.342Z,1.10
2023-04-23T23:28:05.210Z,1.23
2023-04-23T23:30:31.652Z,0.70
2023-04-23T23:32:58.212Z,0.90
2023-04-23T23:35:24.637Z,0.82
2023-04-23T23:37:51.126Z,2.15
2023-04-23T23:40:17.623Z,1.35
2023-04-23T23:42:44.028Z,0.80
2023-04-23T23:45:10.834Z,1.10
2023-04-23T23:47:37.291Z,1.00
2023-04-23T23:50:03.967Z,0.65
2023-04-23T23:52:30.385Z,0.93
2023-04-23T23:54:56.780Z,0.80
2023-04-23T23:57:23.233Z,0.80
2023-04-23T23:59:49.731Z,0.90
